sensor_id;sensor_type;location;lat;lon;timestamp;P1;durP1;ratioP1;P2;durP2;ratioP2
15363;SDS011;7781;49.690;6.472;2023-02-11T00:08:08;32.00;;;16.60;;
15363;SDS011;7781;49.690;6.472;2023-02-11T00:10:42;41.20;;;16.60;;
15363;SDS011;7781;49.690;6.472;2023-02-11T00:13:11;32.87;;;15.47;;
15363;SDS011;7781;49.690;6.472;2023-02-11T00:15:40;35.13;;;17.17;;
15363;SDS011;7781;49.690;6.472;2023-02-11T00:18:08;40.53;;;19.33;;
15363;SDS011;7781;49.690;6.472;2023-02-11T00:20:37;34.90;;;17.63;;
15363;SDS011;7781;49.690;6.472;2023-02-11T00:23:05;39.20;;;17.70;;
15363;SDS011;7781;49.690;6.472;2023-02-11T00:25:38;41.80;;;17.60;;
15363;SDS011;7781;49.690;6.472;2023-02-11T00:28:07;31.23;;;16.47;;
15363;SDS011;7781;49.690;6.472;2023-02-11T00:30:39;30.47;;;16.50;;
15363;SDS011;7781;49.690;6.472;2023-02-11T00:33:07;34.77;;;17.33;;
15363;SDS011;7781;49.690;6.472;2023-02-11T00:35:35;34.43;;;17.60;;
15363;SDS011;7781;49.690;6.472;2023-02-11T00:38:06;29.93;;;16.10;;
15363;SDS011;7781;49.690;6.472;2023-02-11T00:40:36;35.57;;;17.60;;
15363;SDS011;7781;49.690;6.472;2023-02-11T00:43:07;31.13;;;16.60;;
15363;SDS011;7781;49.690;6.472;2023-02-11T00:45:35;39.57;;;17.43;;
15363;SDS011;7781;49.690;6.472;2023-02-11T00:48:04;34.07;;;17.07;;
15363;SDS011;7781;49.690;6.472;2023-02-11T00:50:32;35.63;;;17.57;;
15363;SDS011;7781;49.690;6.472;2023-02-11T00:53:02;39.40;;;18.47;;
15363;SDS011;7781;49.690;6.472;2023-02-11T00:55:31;38.30;;;19.00;;
15363;SDS011;7781;49.690;6.472;2023-02-11T00:58:02;40.00;;;18.77;;
15363;SDS011;7781;49.690;6.472;2023-02-11T01:00:31;36.07;;;18.07;;
15363;SDS011;7781;49.690;6.472;2023-02-11T01:02:59;38.20;;;17.70;;
15363;SDS011;7781;49.690;6.472;2023-02-11T01:05:28;34.33;;;17.40;;
15363;SDS011;7781;49.690;6.472;2023-02-11T01:07:57;40.60;;;18.77;;
15363;SDS011;7781;49.690;6.472;2023-02-11T01:10:26;33.27;;;16.90;;
15363;SDS011;7781;49.690;6.472;2023-02-11T01:12:57;36.43;;;18.17;;
15363;SDS011;7781;49.690;6.472;2023-02-11T01:15:28;32.63;;;16.63;;
15363;SDS011;7781;49.690;6.472;2023-02-11T01:17:57;35.63;;;17.50;;
15363;SDS011;7781;49.690;6.472;2023-02-11T01:20:26;36.13;;;18.30;;
15363;SDS011;7781;49.690;6.472;2023-02-11T01:22:55;38.00;;;16.53;;
15363;SDS011;7781;49.690;6.472;2023-02-11T01:25:25;31.23;;;17.63;;
15363;SDS011;7781;49.690;6.472;2023-02-11T01:27:54;33.17;;;15.40;;
15363;SDS011;7781;49.690;6.472;2023-02-11T01:30:23;33.20;;;17.37;;
15363;SDS011;7781;49.690;6.472;2023-02-11T01:32:53;30.70;;;16.10;;
15363;SDS011;7781;49.690;6.472;2023-02-11T01:35:22;38.33;;;18.20;;
15363;SDS011;7781;49.690;6.472;2023-02-11T01:37:51;31.77;;;16.70;;
15363;SDS011;7781;49.690;6.472;2023-02-11T01:40:19;33.20;;;16.17;;
15363;SDS011;7781;49.690;6.472;2023-02-11T01:42:48;41.20;;;18.80;;
15363;SDS011;7781;49.690;6.472;2023-02-11T01:48:31;33.63;;;16.67;;
15363;SDS011;7781;49.690;6.472;2023-02-11T01:51:03;34.50;;;16.40;;
15363;SDS011;7781;49.690;6.472;2023-02-11T01:53:35;32.00;;;16.10;;
15363;SDS011;7781;49.690;6.472;2023-02-11T01:56:22;36.20;;;16.97;;
15363;SDS011;7781;49.690;6.472;2023-02-11T01:59:14;31.40;;;14.93;;
15363;SDS011;7781;49.690;6.472;2023-02-11T02:01:47;43.53;;;18.77;;
15363;SDS011;7781;49.690;6.472;2023-02-11T02:04:22;35.00;;;16.33;;
15363;SDS011;7781;49.690;6.472;2023-02-11T02:06:58;34.40;;;16.53;;
15363;SDS011;7781;49.690;6.472;2023-02-11T02:09:30;33.43;;;16.57;;
15363;SDS011;7781;49.690;6.472;2023-02-11T02:12:05;32.07;;;16.97;;
15363;SDS011;7781;49.690;6.472;2023-02-11T02:14:36;33.70;;;16.83;;
15363;SDS011;7781;49.690;6.472;2023-02-11T02:17:07;34.47;;;17.07;;
15363;SDS011;7781;49.690;6.472;2023-02-11T02:23:08;29.87;;;16.20;;
15363;SDS011;7781;49.690;6.472;2023-02-11T02:25:57;31.77;;;16.50;;
15363;SDS011;7781;49.690;6.472;2023-02-11T02:29:03;29.33;;;16.00;;
15363;SDS011;7781;49.690;6.472;2023-02-11T02:32:10;23.70;;;10.27;;
15363;SDS011;7781;49.690;6.472;2023-02-11T02:34:54;27.17;;;13.20;;
15363;SDS011;7781;49.690;6.472;2023-02-11T02:37:29;19.80;;;10.50;;
15363;SDS011;7781;49.690;6.472;2023-02-11T02:40:05;24.60;;;12.80;;
15363;SDS011;7781;49.690;6.472;2023-02-11T02:42:41;28.60;;;14.80;;
15363;SDS011;7781;49.690;6.472;2023-02-11T02:45:11;29.17;;;15.80;;
15363;SDS011;7781;49.690;6.472;2023-02-11T02:47:42;26.87;;;15.40;;
15363;SDS011;7781;49.690;6.472;2023-02-11T02:50:10;28.80;;;14.33;;
15363;SDS011;7781;49.690;6.472;2023-02-11T02:52:45;32.93;;;16.20;;
15363;SDS011;7781;49.690;6.472;2023-02-11T02:55:23;29.20;;;15.17;;
15363;SDS011;7781;49.690;6.472;2023-02-11T02:58:23;30.37;;;14.77;;
15363;SDS011;7781;49.690;6.472;2023-02-11T03:01:16;35.53;;;15.73;;
15363;SDS011;7781;49.690;6.472;2023-02-11T03:04:00;32.50;;;16.50;;
15363;SDS011;7781;49.690;6.472;2023-02-11T03:06:35;32.23;;;17.20;;
15363;SDS011;7781;49.690;6.472;2023-02-11T03:09:11;30.97;;;16.30;;
15363;SDS011;7781;49.690;6.472;2023-02-11T03:11:48;33.00;;;16.83;;
15363;SDS011;7781;49.690;6.472;2023-02-11T03:14:17;31.37;;;16.10;;
15363;SDS011;7781;49.690;6.472;2023-02-11T03:16:48;35.13;;;16.97;;
15363;SDS011;7781;49.690;6.472;2023-02-11T03:19:21;36.33;;;16.10;;
15363;SDS011;7781;49.690;6.472;2023-02-11T03:21:53;29.80;;;15.73;;
15363;SDS011;7781;49.690;6.472;2023-02-11T03:24:25;30.47;;;15.77;;
15363;SDS011;7781;49.690;6.472;2023-02-11T03:26:56;32.77;;;16.20;;
15363;SDS011;7781;49.690;6.472;2023-02-11T03:32:26;31.60;;;15.73;;
15363;SDS011;7781;49.690;6.472;2023-02-11T03:35:02;31.20;;;15.50;;
15363;SDS011;7781;49.690;6.472;2023-02-11T03:37:39;30.67;;;16.00;;
15363;SDS011;7781;49.690;6.472;2023-02-11T03:40:13;31.37;;;15.07;;
15363;SDS011;7781;49.690;6.472;2023-02-11T03:42:47;39.53;;;17.13;;
15363;SDS011;7781;49.690;6.472;2023-02-11T03:45:18;30.53;;;14.97;;
15363;SDS011;7781;49.690;6.472;2023-02-11T03:47:51;28.37;;;14.33;;
15363;SDS011;7781;49.690;6.472;2023-02-11T03:50:25;27.00;;;14.00;;
15363;SDS011;7781;49.690;6.472;2023-02-11T03:52:57;32.03;;;15.53;;
15363;SDS011;7781;49.690;6.472;2023-02-11T03:55:28;33.30;;;16.03;;
15363;SDS011;7781;49.690;6.472;2023-02-11T03:58:01;33.30;;;14.70;;
15363;SDS011;7781;49.690;6.472;2023-02-11T04:00:30;33.40;;;14.17;;
15363;SDS011;7781;49.690;6.472;2023-02-11T04:03:02;29.03;;;15.40;;
15363;SDS011;7781;49.690;6.472;2023-02-11T04:05:34;29.23;;;15.30;;
15363;SDS011;7781;49.690;6.472;2023-02-11T04:08:04;34.50;;;16.30;;
15363;SDS011;7781;49.690;6.472;2023-02-11T04:10:34;30.87;;;15.87;;
15363;SDS011;7781;49.690;6.472;2023-02-11T04:13:03;35.57;;;16.80;;
15363;SDS011;7781;49.690;6.472;2023-02-11T04:15:31;28.80;;;15.90;;
15363;SDS011;7781;49.690;6.472;2023-02-11T04:18:01;30.33;;;16.23;;
15363;SDS011;7781;49.690;6.472;2023-02-11T04:20:33;29.60;;;16.10;;
15363;SDS011;7781;49.690;6.472;2023-02-11T04:23:03;30.43;;;16.63;;
15363;SDS011;7781;49.690;6.472;2023-02-11T04:25:33;28.70;;;14.37;;
15363;SDS011;7781;49.690;6.472;2023-02-11T04:28:02;29.87;;;15.33;;
15363;SDS011;7781;49.690;6.472;2023-02-11T04:30:34;29.83;;;14.00;;
15363;SDS011;7781;49.690;6.472;2023-02-11T04:33:03;29.70;;;13.43;;
15363;SDS011;7781;49.690;6.472;2023-02-11T04:35:34;28.40;;;12.70;;
15363;SDS011;7781;49.690;6.472;2023-02-11T04:38:04;22.60;;;13.70;;
15363;SDS011;7781;49.690;6.472;2023-02-11T04:40:32;22.97;;;11.97;;
15363;SDS011;7781;49.690;6.472;2023-02-11T04:43:01;33.80;;;13.60;;
15363;SDS011;7781;49.690;6.472;2023-02-11T04:45:30;24.60;;;13.80;;
15363;SDS011;7781;49.690;6.472;2023-02-11T04:48:00;28.30;;;13.70;;
15363;SDS011;7781;49.690;6.472;2023-02-11T04:50:29;26.53;;;12.97;;
15363;SDS011;7781;49.690;6.472;2023-02-11T04:52:59;22.07;;;11.70;;
15363;SDS011;7781;49.690;6.472;2023-02-11T04:55:29;25.10;;;12.70;;
15363;SDS011;7781;49.690;6.472;2023-02-11T04:58:00;26.23;;;13.57;;
15363;SDS011;7781;49.690;6.472;2023-02-11T05:00:30;29.17;;;14.50;;
15363;SDS011;7781;49.690;6.472;2023-02-11T05:02:58;27.70;;;13.23;;
15363;SDS011;7781;49.690;6.472;2023-02-11T05:05:27;29.77;;;13.27;;
15363;SDS011;7781;49.690;6.472;2023-02-11T05:07:55;26.77;;;13.20;;
15363;SDS011;7781;49.690;6.472;2023-02-11T05:10:25;26.67;;;13.20;;
15363;SDS011;7781;49.690;6.472;2023-02-11T05:12:54;21.57;;;11.40;;
15363;SDS011;7781;49.690;6.472;2023-02-11T05:15:22;25.67;;;12.97;;
15363;SDS011;7781;49.690;6.472;2023-02-11T05:17:54;25.53;;;12.47;;
15363;SDS011;7781;49.690;6.472;2023-02-11T05:20:23;27.67;;;11.90;;
15363;SDS011;7781;49.690;6.472;2023-02-11T05:22:52;29.70;;;14.83;;
15363;SDS011;7781;49.690;6.472;2023-02-11T05:25:20;28.50;;;13.33;;
15363;SDS011;7781;49.690;6.472;2023-02-11T05:27:52;24.67;;;14.03;;
15363;SDS011;7781;49.690;6.472;2023-02-11T05:30:20;21.67;;;12.43;;
15363;SDS011;7781;49.690;6.472;2023-02-11T05:32:49;31.77;;;14.50;;
15363;SDS011;7781;49.690;6.472;2023-02-11T05:35:18;26.97;;;13.83;;
15363;SDS011;7781;49.690;6.472;2023-02-11T05:37:46;33.47;;;14.77;;
15363;SDS011;7781;49.690;6.472;2023-02-11T05:40:16;38.00;;;14.60;;
15363;SDS011;7781;49.690;6.472;2023-02-11T05:42:48;26.90;;;13.60;;
15363;SDS011;7781;49.690;6.472;2023-02-11T05:45:20;27.83;;;14.90;;
15363;SDS011;7781;49.690;6.472;2023-02-11T05:47:49;35.63;;;16.47;;
15363;SDS011;7781;49.690;6.472;2023-02-11T05:50:18;32.50;;;15.93;;
15363;SDS011;7781;49.690;6.472;2023-02-11T05:52:46;35.53;;;17.80;;
15363;SDS011;7781;49.690;6.472;2023-02-11T05:55:15;31.97;;;16.13;;
15363;SDS011;7781;49.690;6.472;2023-02-11T05:57:47;38.67;;;16.60;;
15363;SDS011;7781;49.690;6.472;2023-02-11T06:00:17;39.80;;;15.30;;
15363;SDS011;7781;49.690;6.472;2023-02-11T06:02:51;31.40;;;16.73;;
15363;SDS011;7781;49.690;6.472;2023-02-11T06:05:22;34.57;;;17.40;;
15363;SDS011;7781;49.690;6.472;2023-02-11T06:07:51;34.90;;;16.73;;
15363;SDS011;7781;49.690;6.472;2023-02-11T06:10:20;38.07;;;18.03;;
15363;SDS011;7781;49.690;6.472;2023-02-11T06:12:49;32.63;;;16.00;;
15363;SDS011;7781;49.690;6.472;2023-02-11T06:15:18;32.83;;;16.77;;
15363;SDS011;7781;49.690;6.472;2023-02-11T06:17:46;43.80;;;19.43;;
15363;SDS011;7781;49.690;6.472;2023-02-11T06:20:17;39.67;;;18.57;;
15363;SDS011;7781;49.690;6.472;2023-02-11T06:22:45;36.13;;;18.60;;
15363;SDS011;7781;49.690;6.472;2023-02-11T06:25:13;44.03;;;19.30;;
15363;SDS011;7781;49.690;6.472;2023-02-11T06:27:43;35.80;;;17.87;;
15363;SDS011;7781;49.690;6.472;2023-02-11T06:30:13;40.60;;;17.53;;
15363;SDS011;7781;49.690;6.472;2023-02-11T06:32:42;34.87;;;16.37;;
15363;SDS011;7781;49.690;6.472;2023-02-11T06:35:12;32.90;;;16.60;;
15363;SDS011;7781;49.690;6.472;2023-02-11T06:37:43;34.43;;;17.03;;
15363;SDS011;7781;49.690;6.472;2023-02-11T06:40:12;32.20;;;16.67;;
15363;SDS011;7781;49.690;6.472;2023-02-11T06:42:40;32.73;;;15.80;;
15363;SDS011;7781;49.690;6.472;2023-02-11T06:45:09;37.27;;;16.90;;
15363;SDS011;7781;49.690;6.472;2023-02-11T06:47:39;31.53;;;17.40;;
15363;SDS011;7781;49.690;6.472;2023-02-11T06:50:10;28.13;;;15.43;;
15363;SDS011;7781;49.690;6.472;2023-02-11T06:52:40;30.53;;;15.00;;
15363;SDS011;7781;49.690;6.472;2023-02-11T06:55:10;31.93;;;15.67;;
15363;SDS011;7781;49.690;6.472;2023-02-11T06:57:39;31.73;;;16.60;;
15363;SDS011;7781;49.690;6.472;2023-02-11T07:00:10;32.47;;;16.40;;
15363;SDS011;7781;49.690;6.472;2023-02-11T07:02:39;30.30;;;16.50;;
15363;SDS011;7781;49.690;6.472;2023-02-11T07:05:08;29.10;;;16.03;;
15363;SDS011;7781;49.690;6.472;2023-02-11T07:07:36;35.70;;;17.33;;
15363;SDS011;7781;49.690;6.472;2023-02-11T07:10:05;32.37;;;17.70;;
15363;SDS011;7781;49.690;6.472;2023-02-11T07:12:38;33.87;;;18.00;;
15363;SDS011;7781;49.690;6.472;2023-02-11T07:15:06;34.87;;;19.30;;
15363;SDS011;7781;49.690;6.472;2023-02-11T07:17:35;36.90;;;17.00;;
15363;SDS011;7781;49.690;6.472;2023-02-11T07:20:04;34.87;;;17.80;;
15363;SDS011;7781;49.690;6.472;2023-02-11T07:22:34;33.87;;;16.37;;
15363;SDS011;7781;49.690;6.472;2023-02-11T07:25:04;35.40;;;17.40;;
15363;SDS011;7781;49.690;6.472;2023-02-11T07:27:32;34.30;;;17.67;;
15363;SDS011;7781;49.690;6.472;2023-02-11T07:30:03;38.07;;;18.90;;
15363;SDS011;7781;49.690;6.472;2023-02-11T07:32:34;41.37;;;18.47;;
15363;SDS011;7781;49.690;6.472;2023-02-11T07:35:02;45.60;;;26.00;;
15363;SDS011;7781;49.690;6.472;2023-02-11T07:37:32;48.27;;;23.37;;
15363;SDS011;7781;49.690;6.472;2023-02-11T07:40:00;48.30;;;23.73;;
15363;SDS011;7781;49.690;6.472;2023-02-11T07:42:29;43.10;;;21.47;;
15363;SDS011;7781;49.690;6.472;2023-02-11T07:44:58;39.20;;;21.40;;
15363;SDS011;7781;49.690;6.472;2023-02-11T07:47:28;41.60;;;20.83;;
15363;SDS011;7781;49.690;6.472;2023-02-11T07:49:58;37.47;;;19.40;;
15363;SDS011;7781;49.690;6.472;2023-02-11T07:52:28;43.20;;;20.70;;
15363;SDS011;7781;49.690;6.472;2023-02-11T07:54:56;44.60;;;19.70;;
15363;SDS011;7781;49.690;6.472;2023-02-11T07:57:30;53.63;;;25.57;;
15363;SDS011;7781;49.690;6.472;2023-02-11T08:00:02;40.47;;;21.97;;
15363;SDS011;7781;49.690;6.472;2023-02-11T08:02:38;41.67;;;19.77;;
15363;SDS011;7781;49.690;6.472;2023-02-11T08:05:07;37.37;;;19.27;;
15363;SDS011;7781;49.690;6.472;2023-02-11T08:07:35;35.70;;;17.23;;
15363;SDS011;7781;49.690;6.472;2023-02-11T08:10:04;35.23;;;17.37;;
15363;SDS011;7781;49.690;6.472;2023-02-11T08:12:34;27.67;;;16.87;;
15363;SDS011;7781;49.690;6.472;2023-02-11T08:15:02;32.63;;;17.07;;
15363;SDS011;7781;49.690;6.472;2023-02-11T08:17:33;32.37;;;16.87;;
15363;SDS011;7781;49.690;6.472;2023-02-11T08:20:04;34.23;;;16.90;;
15363;SDS011;7781;49.690;6.472;2023-02-11T08:22:33;35.90;;;17.27;;
15363;SDS011;7781;49.690;6.472;2023-02-11T08:25:02;34.20;;;17.47;;
15363;SDS011;7781;49.690;6.472;2023-02-11T08:27:30;35.13;;;15.67;;
15363;SDS011;7781;49.690;6.472;2023-02-11T08:29:59;32.73;;;16.60;;
15363;SDS011;7781;49.690;6.472;2023-02-11T08:32:28;35.53;;;17.70;;
15363;SDS011;7781;49.690;6.472;2023-02-11T08:35:00;34.60;;;16.70;;
15363;SDS011;7781;49.690;6.472;2023-02-11T08:37:34;38.73;;;17.67;;
15363;SDS011;7781;49.690;6.472;2023-02-11T08:40:03;36.40;;;16.90;;
15363;SDS011;7781;49.690;6.472;2023-02-11T08:42:32;40.97;;;16.97;;
15363;SDS011;7781;49.690;6.472;2023-02-11T08:45:01;32.50;;;17.07;;
15363;SDS011;7781;49.690;6.472;2023-02-11T08:47:31;30.70;;;17.73;;
15363;SDS011;7781;49.690;6.472;2023-02-11T08:50:01;31.70;;;15.93;;
15363;SDS011;7781;49.690;6.472;2023-02-11T08:52:31;32.17;;;15.90;;
15363;SDS011;7781;49.690;6.472;2023-02-11T08:55:01;34.17;;;15.80;;
15363;SDS011;7781;49.690;6.472;2023-02-11T08:57:30;28.93;;;15.60;;
15363;SDS011;7781;49.690;6.472;2023-02-11T08:59:59;28.53;;;12.07;;
15363;SDS011;7781;49.690;6.472;2023-02-11T09:02:27;32.73;;;16.40;;
15363;SDS011;7781;49.690;6.472;2023-02-11T09:04:56;35.23;;;15.23;;
15363;SDS011;7781;49.690;6.472;2023-02-11T09:07:25;35.50;;;15.33;;
15363;SDS011;7781;49.690;6.472;2023-02-11T09:09:55;28.23;;;14.23;;
15363;SDS011;7781;49.690;6.472;2023-02-11T09:12:26;30.30;;;14.30;;
15363;SDS011;7781;49.690;6.472;2023-02-11T09:14:54;31.30;;;13.90;;
15363;SDS011;7781;49.690;6.472;2023-02-11T09:17:23;29.43;;;14.47;;
15363;SDS011;7781;49.690;6.472;2023-02-11T09:19:52;30.53;;;14.20;;
15363;SDS011;7781;49.690;6.472;2023-02-11T09:22:20;23.43;;;13.20;;
15363;SDS011;7781;49.690;6.472;2023-02-11T09:24:48;25.63;;;13.13;;
15363;SDS011;7781;49.690;6.472;2023-02-11T09:27:17;27.77;;;12.33;;
15363;SDS011;7781;49.690;6.472;2023-02-11T09:29:48;31.03;;;14.73;;
15363;SDS011;7781;49.690;6.472;2023-02-11T09:32:18;27.83;;;12.63;;
15363;SDS011;7781;49.690;6.472;2023-02-11T09:34:48;31.50;;;15.90;;
15363;SDS011;7781;49.690;6.472;2023-02-11T09:37:16;27.53;;;13.53;;
15363;SDS011;7781;49.690;6.472;2023-02-11T09:39:45;24.43;;;12.97;;
15363;SDS011;7781;49.690;6.472;2023-02-11T09:42:28;29.13;;;13.43;;
15363;SDS011;7781;49.690;6.472;2023-02-11T09:45:11;33.37;;;16.03;;
15363;SDS011;7781;49.690;6.472;2023-02-11T09:47:45;31.80;;;14.93;;
15363;SDS011;7781;49.690;6.472;2023-02-11T09:50:17;31.30;;;14.23;;
15363;SDS011;7781;49.690;6.472;2023-02-11T09:52:50;27.37;;;14.33;;
15363;SDS011;7781;49.690;6.472;2023-02-11T09:55:24;27.90;;;14.30;;
15363;SDS011;7781;49.690;6.472;2023-02-11T09:57:54;23.37;;;11.90;;
15363;SDS011;7781;49.690;6.472;2023-02-11T10:00:26;22.97;;;12.40;;
15363;SDS011;7781;49.690;6.472;2023-02-11T10:03:05;31.03;;;14.13;;
15363;SDS011;7781;49.690;6.472;2023-02-11T10:05:58;26.53;;;12.83;;
15363;SDS011;7781;49.690;6.472;2023-02-11T10:08:50;28.40;;;12.00;;
15363;SDS011;7781;49.690;6.472;2023-02-11T10:11:30;24.30;;;11.50;;
15363;SDS011;7781;49.690;6.472;2023-02-11T10:14:06;29.73;;;13.87;;
15363;SDS011;7781;49.690;6.472;2023-02-11T10:16:53;28.17;;;13.93;;
15363;SDS011;7781;49.690;6.472;2023-02-11T10:19:34;30.07;;;14.80;;
15363;SDS011;7781;49.690;6.472;2023-02-11T10:22:14;24.73;;;13.00;;
15363;SDS011;7781;49.690;6.472;2023-02-11T10:24:49;30.33;;;14.90;;
15363;SDS011;7781;49.690;6.472;2023-02-11T10:27:20;26.67;;;13.90;;
15363;SDS011;7781;49.690;6.472;2023-02-11T10:29:56;27.93;;;14.63;;
15363;SDS011;7781;49.690;6.472;2023-02-11T10:32:34;29.70;;;14.20;;
15363;SDS011;7781;49.690;6.472;2023-02-11T10:35:12;28.67;;;14.87;;
15363;SDS011;7781;49.690;6.472;2023-02-11T10:37:44;34.00;;;14.00;;
15363;SDS011;7781;49.690;6.472;2023-02-11T10:40:13;28.40;;;14.87;;
15363;SDS011;7781;49.690;6.472;2023-02-11T10:42:46;32.20;;;14.33;;
15363;SDS011;7781;49.690;6.472;2023-02-11T10:45:21;29.20;;;15.90;;
15363;SDS011;7781;49.690;6.472;2023-02-11T10:47:58;35.33;;;14.73;;
15363;SDS011;7781;49.690;6.472;2023-02-11T10:50:28;31.40;;;14.73;;
15363;SDS011;7781;49.690;6.472;2023-02-11T10:53:10;36.20;;;16.07;;
15363;SDS011;7781;49.690;6.472;2023-02-11T10:55:49;34.63;;;16.00;;
15363;SDS011;7781;49.690;6.472;2023-02-11T10:58:22;31.40;;;14.87;;
15363;SDS011;7781;49.690;6.472;2023-02-11T11:00:53;31.13;;;13.53;;
15363;SDS011;7781;49.690;6.472;2023-02-11T11:03:25;34.23;;;16.17;;
15363;SDS011;7781;49.690;6.472;2023-02-11T11:05:57;36.90;;;15.60;;
15363;SDS011;7781;49.690;6.472;2023-02-11T11:08:36;28.50;;;14.47;;
15363;SDS011;7781;49.690;6.472;2023-02-11T11:11:07;34.13;;;13.83;;
15363;SDS011;7781;49.690;6.472;2023-02-11T11:13:37;32.43;;;15.97;;
15363;SDS011;7781;49.690;6.472;2023-02-11T11:16:16;30.53;;;15.30;;
15363;SDS011;7781;49.690;6.472;2023-02-11T11:18:49;27.00;;;14.30;;
15363;SDS011;7781;49.690;6.472;2023-02-11T11:21:21;27.03;;;13.10;;
15363;SDS011;7781;49.690;6.472;2023-02-11T11:23:53;29.57;;;14.20;;
15363;SDS011;7781;49.690;6.472;2023-02-11T11:26:24;29.80;;;14.47;;
15363;SDS011;7781;49.690;6.472;2023-02-11T11:28:58;36.07;;;14.40;;
15363;SDS011;7781;49.690;6.472;2023-02-11T11:31:30;29.33;;;14.23;;
15363;SDS011;7781;49.690;6.472;2023-02-11T11:34:05;30.00;;;14.43;;
15363;SDS011;7781;49.690;6.472;2023-02-11T11:36:47;30.50;;;13.20;;
15363;SDS011;7781;49.690;6.472;2023-02-11T11:39:20;31.70;;;13.97;;
15363;SDS011;7781;49.690;6.472;2023-02-11T11:41:52;34.90;;;14.97;;
15363;SDS011;7781;49.690;6.472;2023-02-11T11:44:23;39.97;;;15.70;;
15363;SDS011;7781;49.690;6.472;2023-02-11T11:47:11;30.03;;;15.03;;
15363;SDS011;7781;49.690;6.472;2023-02-11T11:49:49;29.10;;;14.90;;
15363;SDS011;7781;49.690;6.472;2023-02-11T11:52:33;29.13;;;13.53;;
15363;SDS011;7781;49.690;6.472;2023-02-11T11:55:10;26.50;;;13.93;;
15363;SDS011;7781;49.690;6.472;2023-02-11T11:57:42;29.50;;;14.23;;
15363;SDS011;7781;49.690;6.472;2023-02-11T12:00:23;32.73;;;15.13;;
15363;SDS011;7781;49.690;6.472;2023-02-11T12:12:49;21.60;;;10.87;;
15363;SDS011;7781;49.690;6.472;2023-02-11T12:15:28;26.80;;;14.00;;
15363;SDS011;7781;49.690;6.472;2023-02-11T12:18:14;28.70;;;12.77;;
15363;SDS011;7781;49.690;6.472;2023-02-11T12:20:58;29.27;;;13.37;;
15363;SDS011;7781;49.690;6.472;2023-02-11T12:23:51;31.13;;;14.17;;
15363;SDS011;7781;49.690;6.472;2023-02-11T12:26:27;23.90;;;11.50;;
15363;SDS011;7781;49.690;6.472;2023-02-11T12:29:07;29.20;;;12.83;;
15363;SDS011;7781;49.690;6.472;2023-02-11T12:31:52;28.53;;;13.97;;
15363;SDS011;7781;49.690;6.472;2023-02-11T12:34:35;27.67;;;13.47;;
15363;SDS011;7781;49.690;6.472;2023-02-11T12:37:23;26.60;;;13.40;;
15363;SDS011;7781;49.690;6.472;2023-02-11T12:40:08;25.20;;;13.23;;
15363;SDS011;7781;49.690;6.472;2023-02-11T12:42:48;30.13;;;13.87;;
15363;SDS011;7781;49.690;6.472;2023-02-11T12:45:48;23.63;;;12.90;;
15363;SDS011;7781;49.690;6.472;2023-02-11T12:48:34;37.40;;;13.33;;
15363;SDS011;7781;49.690;6.472;2023-02-11T12:51:18;20.37;;;10.50;;
15363;SDS011;7781;49.690;6.472;2023-02-11T12:54:03;23.33;;;10.63;;
15363;SDS011;7781;49.690;6.472;2023-02-11T12:56:45;24.80;;;12.60;;
15363;SDS011;7781;49.690;6.472;2023-02-11T12:59:21;24.70;;;13.30;;
15363;SDS011;7781;49.690;6.472;2023-02-11T13:02:11;21.60;;;11.47;;
15363;SDS011;7781;49.690;6.472;2023-02-11T13:04:47;28.40;;;14.57;;
15363;SDS011;7781;49.690;6.472;2023-02-11T13:07:25;33.77;;;15.03;;
15363;SDS011;7781;49.690;6.472;2023-02-11T13:10:02;39.33;;;15.07;;
15363;SDS011;7781;49.690;6.472;2023-02-11T13:12:36;21.03;;;11.87;;
15363;SDS011;7781;49.690;6.472;2023-02-11T13:15:25;26.23;;;13.60;;
15363;SDS011;7781;49.690;6.472;2023-02-11T13:17:58;29.30;;;14.30;;
15363;SDS011;7781;49.690;6.472;2023-02-11T13:20:37;32.63;;;13.50;;
15363;SDS011;7781;49.690;6.472;2023-02-11T13:23:17;25.93;;;11.17;;
15363;SDS011;7781;49.690;6.472;2023-02-11T13:25:53;30.30;;;14.87;;
15363;SDS011;7781;49.690;6.472;2023-02-11T13:28:34;27.17;;;13.80;;
15363;SDS011;7781;49.690;6.472;2023-02-11T13:31:08;41.80;;;15.60;;
15363;SDS011;7781;49.690;6.472;2023-02-11T13:33:43;35.23;;;15.73;;
15363;SDS011;7781;49.690;6.472;2023-02-11T13:36:15;34.80;;;14.60;;
15363;SDS011;7781;49.690;6.472;2023-02-11T13:38:59;27.00;;;13.27;;
15363;SDS011;7781;49.690;6.472;2023-02-11T13:41:33;31.50;;;14.90;;
15363;SDS011;7781;49.690;6.472;2023-02-11T13:46:58;30.07;;;14.83;;
15363;SDS011;7781;49.690;6.472;2023-02-11T14:06:20;29.43;;;15.00;;
15363;SDS011;7781;49.690;6.472;2023-02-11T14:12:20;31.70;;;14.87;;
15363;SDS011;7781;49.690;6.472;2023-02-11T14:17:49;27.80;;;15.00;;
15363;SDS011;7781;49.690;6.472;2023-02-11T14:20:32;23.60;;;13.17;;
15363;SDS011;7781;49.690;6.472;2023-02-11T14:23:05;38.17;;;13.27;;
15363;SDS011;7781;49.690;6.472;2023-02-11T14:25:34;30.63;;;13.70;;
15363;SDS011;7781;49.690;6.472;2023-02-11T14:28:07;30.80;;;13.53;;
15363;SDS011;7781;49.690;6.472;2023-02-11T14:30:45;26.20;;;13.43;;
15363;SDS011;7781;49.690;6.472;2023-02-11T14:33:42;36.10;;;14.50;;
15363;SDS011;7781;49.690;6.472;2023-02-11T14:39:22;23.40;;;13.30;;
15363;SDS011;7781;49.690;6.472;2023-02-11T14:42:04;30.33;;;13.47;;
15363;SDS011;7781;49.690;6.472;2023-02-11T14:44:38;22.93;;;12.30;;
15363;SDS011;7781;49.690;6.472;2023-02-11T14:47:10;29.90;;;12.70;;
15363;SDS011;7781;49.690;6.472;2023-02-11T14:49:45;30.10;;;13.57;;
15363;SDS011;7781;49.690;6.472;2023-02-11T14:52:18;28.47;;;12.57;;
15363;SDS011;7781;49.690;6.472;2023-02-11T14:55:00;31.50;;;12.93;;
15363;SDS011;7781;49.690;6.472;2023-02-11T14:57:36;32.83;;;13.50;;
15363;SDS011;7781;49.690;6.472;2023-02-11T15:00:17;26.27;;;13.43;;
15363;SDS011;7781;49.690;6.472;2023-02-11T15:02:48;30.80;;;14.47;;
15363;SDS011;7781;49.690;6.472;2023-02-11T15:05:20;21.17;;;13.33;;
15363;SDS011;7781;49.690;6.472;2023-02-11T15:07:52;25.90;;;13.50;;
15363;SDS011;7781;49.690;6.472;2023-02-11T15:10:29;23.80;;;12.07;;
15363;SDS011;7781;49.690;6.472;2023-02-11T15:13:02;29.80;;;12.43;;
15363;SDS011;7781;49.690;6.472;2023-02-11T15:15:32;28.93;;;13.70;;
15363;SDS011;7781;49.690;6.472;2023-02-11T15:18:03;26.73;;;13.23;;
15363;SDS011;7781;49.690;6.472;2023-02-11T15:20:35;27.93;;;13.30;;
15363;SDS011;7781;49.690;6.472;2023-02-11T15:23:07;33.50;;;13.60;;
15363;SDS011;7781;49.690;6.472;2023-02-11T15:25:46;28.60;;;12.47;;
15363;SDS011;7781;49.690;6.472;2023-02-11T15:28:20;38.97;;;16.80;;
15363;SDS011;7781;49.690;6.472;2023-02-11T15:30:58;30.17;;;16.90;;
15363;SDS011;7781;49.690;6.472;2023-02-11T15:33:28;29.77;;;13.43;;
15363;SDS011;7781;49.690;6.472;2023-02-11T15:35:58;23.63;;;13.33;;
15363;SDS011;7781;49.690;6.472;2023-02-11T15:38:27;32.10;;;13.07;;
15363;SDS011;7781;49.690;6.472;2023-02-11T15:40:58;23.73;;;12.20;;
15363;SDS011;7781;49.690;6.472;2023-02-11T15:43:40;28.23;;;12.10;;
15363;SDS011;7781;49.690;6.472;2023-02-11T15:46:11;34.03;;;13.13;;
15363;SDS011;7781;49.690;6.472;2023-02-11T15:48:46;25.90;;;14.07;;
15363;SDS011;7781;49.690;6.472;2023-02-11T15:51:18;28.43;;;12.83;;
15363;SDS011;7781;49.690;6.472;2023-02-11T15:53:48;27.90;;;12.57;;
15363;SDS011;7781;49.690;6.472;2023-02-11T15:56:28;25.83;;;12.70;;
15363;SDS011;7781;49.690;6.472;2023-02-11T15:59:07;27.57;;;11.73;;
15363;SDS011;7781;49.690;6.472;2023-02-11T16:01:39;26.10;;;12.23;;
15363;SDS011;7781;49.690;6.472;2023-02-11T16:04:14;23.20;;;10.80;;